createdAt,value
2019-02-20T00:02:11.459Z,38.40
2019-02-20T00:04:41.188Z,38.43
2019-02-20T00:07:11.034Z,41.17
2019-02-20T00:09:40.886Z,40.47
2019-02-20T00:12:10.798Z,42.23
2019-02-20T00:14:40.580Z,46.93
2019-02-20T00:17:10.532Z,48.03
2019-02-20T00:19:40.346Z,46.20
2019-02-20T00:22:10.195Z,41.70
2019-02-20T00:24:40.026Z,40.40
2019-02-20T00:27:09.902Z,37.47
2019-02-20T00:29:39.622Z,41.27
2019-02-20T00:32:09.330Z,38.80
2019-02-20T00:34:39.102Z,39.13
2019-02-20T00:37:08.942Z,38.13
2019-02-20T00:39:38.677Z,43.23
2019-02-20T00:42:08.401Z,44.57
2019-02-20T00:44:45.000Z,46.67
2019-02-20T00:47:42.354Z,46.70
2019-02-20T00:50:13.010Z,43.37
2019-02-20T00:52:49.940Z,44.20
2019-02-20T00:55:18.786Z,48.93
2019-02-20T00:57:48.509Z,41.40
2019-02-20T01:00:18.473Z,39.30
2019-02-20T01:02:48.288Z,39.60
2019-02-20T01:05:18.160Z,38.10
2019-02-20T01:07:47.962Z,31.87
2019-02-20T01:10:17.756Z,31.67
2019-02-20T01:12:47.558Z,29.80
2019-02-20T01:15:17.409Z,31.80
2019-02-20T01:17:47.236Z,30.83
2019-02-20T01:20:17.037Z,27.37
2019-02-20T01:22:46.877Z,25.77
2019-02-20T01:25:16.421Z,23.90
2019-02-20T01:27:46.032Z,32.40
2019-02-20T01:30:15.697Z,26.67
2019-02-20T01:32:45.430Z,28.27
2019-02-20T01:35:15.017Z,29.13
2019-02-20T01:37:44.658Z,24.90
2019-02-20T01:40:14.231Z,26.00
2019-02-20T01:42:43.769Z,22.43
2019-02-20T01:45:13.339Z,26.43
2019-02-20T01:47:42.957Z,24.60
2019-02-20T01:50:12.503Z,23.27
2019-02-20T01:52:42.056Z,22.00
2019-02-20T01:55:11.637Z,20.43
2019-02-20T01:57:41.249Z,19.97
2019-02-20T02:00:11.263Z,19.30
2019-02-20T02:02:40.822Z,18.50
2019-02-20T02:05:15.297Z,24.50
2019-02-20T02:07:41.645Z,24.40
2019-02-20T02:10:11.268Z,25.03
2019-02-20T02:12:40.883Z,26.17
2019-02-20T02:15:10.491Z,23.13
2019-02-20T02:17:41.216Z,23.40
2019-02-20T02:20:10.826Z,24.20
2019-02-20T02:22:40.368Z,23.83
2019-02-20T02:25:09.965Z,24.07
2019-02-20T02:27:39.550Z,22.80
2019-02-20T02:30:10.309Z,23.87
2019-02-20T02:32:39.897Z,21.80
2019-02-20T02:35:09.464Z,22.47
2019-02-20T02:37:39.024Z,19.13
2019-02-20T02:40:08.983Z,23.53
2019-02-20T02:42:38.511Z,20.87
2019-02-20T02:45:08.065Z,23.07
2019-02-20T02:47:37.667Z,22.30
2019-02-20T02:50:07.656Z,22.00
2019-02-20T02:52:37.226Z,21.83
2019-02-20T02:55:06.955Z,21.00
2019-02-20T02:57:36.501Z,20.87
2019-02-20T03:00:06.657Z,18.30
2019-02-20T03:02:36.189Z,19.53
2019-02-20T03:05:05.760Z,17.97
2019-02-20T03:07:35.446Z,22.20
2019-02-20T03:10:05.564Z,25.60
2019-02-20T03:12:35.107Z,26.00
2019-02-20T03:15:05.096Z,27.43
2019-02-20T03:17:34.702Z,21.90
2019-02-20T03:20:04.372Z,23.10
2019-02-20T03:22:34.016Z,22.20
2019-02-20T03:25:03.688Z,21.47
2019-02-20T03:27:33.260Z,21.53
2019-02-20T03:30:03.011Z,19.17
2019-02-20T03:32:32.562Z,21.57
2019-02-20T03:35:02.255Z,20.10
2019-02-20T03:37:31.789Z,23.23
2019-02-20T03:40:01.383Z,28.63
2019-02-20T03:42:31.042Z,28.27
2019-02-20T03:45:00.605Z,27.90
2019-02-20T03:47:30.166Z,28.63
2019-02-20T03:49:59.824Z,31.20
2019-02-20T03:52:29.408Z,33.60
2019-02-20T03:54:58.977Z,32.70
2019-02-20T03:57:28.639Z,30.97
2019-02-20T03:59:58.161Z,31.07
2019-02-20T04:02:27.723Z,29.53
2019-02-20T04:04:57.425Z,32.30
2019-02-20T04:07:27.076Z,32.67
2019-02-20T04:09:56.635Z,33.60
2019-02-20T04:12:26.193Z,34.00
2019-02-20T04:14:55.849Z,32.77
2019-02-20T04:17:25.393Z,32.60
2019-02-20T04:19:55.064Z,32.70
2019-02-20T04:22:24.623Z,33.60
2019-02-20T04:24:54.274Z,36.40
2019-02-20T04:27:23.928Z,35.13
2019-02-20T04:29:53.592Z,35.60
2019-02-20T04:32:23.213Z,36.87
2019-02-20T04:34:52.754Z,34.83
2019-02-20T04:37:22.447Z,34.57
2019-02-20T04:39:52.000Z,36.47
2019-02-20T04:42:22.058Z,33.70
2019-02-20T04:44:51.708Z,39.57
2019-02-20T04:47:21.267Z,36.10
2019-02-20T04:49:50.831Z,38.80
2019-02-20T04:52:20.557Z,36.40
2019-02-20T04:54:50.176Z,39.93
2019-02-20T04:57:19.812Z,40.80
2019-02-20T04:59:49.492Z,45.60
2019-02-20T05:02:19.091Z,42.87
2019-02-20T05:04:48.752Z,45.47
2019-02-20T05:07:18.421Z,44.20
2019-02-20T05:09:48.042Z,44.77
2019-02-20T05:12:17.591Z,45.03
2019-02-20T05:14:47.147Z,47.33
2019-02-20T05:17:16.855Z,45.93
2019-02-20T05:19:46.418Z,46.43
2019-02-20T05:22:16.067Z,47.37
2019-02-20T05:24:45.758Z,47.80
2019-02-20T05:27:15.289Z,48.63
2019-02-20T05:29:44.952Z,52.07
2019-02-20T05:32:14.525Z,52.27
2019-02-20T05:34:44.171Z,54.40
2019-02-20T05:37:13.725Z,52.70
2019-02-20T05:39:43.284Z,51.63
2019-02-20T05:42:12.963Z,54.63
2019-02-20T05:44:42.505Z,51.93
2019-02-20T05:47:12.140Z,52.27
2019-02-20T05:49:41.868Z,58.57
2019-02-20T05:52:11.473Z,60.70
2019-02-20T05:54:41.075Z,48.80
2019-02-20T05:57:10.786Z,47.60
2019-02-20T05:59:40.507Z,44.03
2019-02-20T06:02:10.092Z,43.37
2019-02-20T06:04:39.653Z,42.50
2019-02-20T06:07:09.231Z,39.70
2019-02-20T06:09:38.797Z,42.37
2019-02-20T06:12:08.466Z,40.80
2019-02-20T06:14:38.039Z,40.50
2019-02-20T06:17:07.786Z,45.67
2019-02-20T06:19:37.552Z,39.70
2019-02-20T06:22:07.161Z,44.43
2019-02-20T06:24:43.936Z,42.57
2019-02-20T06:27:08.227Z,46.80
2019-02-20T06:29:37.987Z,66.57
2019-02-20T06:32:07.646Z,67.90
2019-02-20T06:34:37.289Z,57.13
2019-02-20T06:37:06.981Z,52.73
2019-02-20T06:39:36.659Z,48.10
2019-02-20T06:42:06.213Z,43.07
2019-02-20T06:44:35.878Z,44.87
2019-02-20T06:47:05.519Z,45.87
2019-02-20T06:49:35.092Z,61.57
2019-02-20T06:52:04.726Z,56.23
2019-02-20T06:54:34.398Z,49.20
2019-02-20T06:57:04.037Z,51.13
2019-02-20T06:59:33.575Z,58.70
2019-02-20T07:02:03.145Z,52.60
2019-02-20T07:04:32.839Z,46.13
2019-02-20T07:07:43.139Z,45.10
2019-02-20T07:10:53.373Z,42.60
2019-02-20T07:14:07.762Z,37.37
2019-02-20T07:17:18.111Z,24.30
2019-02-20T07:20:31.932Z,19.10
2019-02-20T07:23:24.079Z,21.30
2019-02-20T07:26:24.912Z,25.73
2019-02-20T07:29:37.306Z,20.40
2019-02-20T07:32:06.917Z,22.37
2019-02-20T07:34:36.578Z,22.10
2019-02-20T07:37:06.132Z,21.50
2019-02-20T07:39:35.891Z,21.00
2019-02-20T07:42:05.451Z,21.83
2019-02-20T07:44:35.176Z,23.37
2019-02-20T07:47:04.709Z,24.30
2019-02-20T07:49:34.290Z,23.20
2019-02-20T07:52:04.003Z,24.63
2019-02-20T07:54:33.640Z,24.07
2019-02-20T07:57:03.175Z,21.80
2019-02-20T07:59:32.854Z,22.10
2019-02-20T08:02:02.537Z,20.73
2019-02-20T08:04:32.275Z,21.60
2019-02-20T08:07:01.938Z,21.87
2019-02-20T08:09:31.593Z,19.87
2019-02-20T08:12:01.147Z,18.90
2019-02-20T08:14:31.092Z,19.60
2019-02-20T08:17:00.773Z,16.77
2019-02-20T08:19:30.471Z,17.30
2019-02-20T08:22:00.057Z,20.57
2019-02-20T08:24:29.729Z,25.63
2019-02-20T08:26:59.313Z,25.60
2019-02-20T08:29:28.862Z,24.90
2019-02-20T08:31:58.428Z,26.80
2019-02-20T08:34:27.975Z,19.60
2019-02-20T08:36:57.661Z,19.90
2019-02-20T08:39:27.294Z,18.60
2019-02-20T08:41:56.970Z,20.17
2019-02-20T08:44:26.530Z,18.00
2019-02-20T08:46:56.194Z,16.20
2019-02-20T08:49:25.851Z,18.47
2019-02-20T08:51:55.521Z,19.53
2019-02-20T08:54:25.210Z,18.83
2019-02-20T08:56:54.956Z,19.57
2019-02-20T08:59:24.483Z,18.30
2019-02-20T09:01:54.141Z,19.33
2019-02-20T09:04:23.839Z,20.93
2019-02-20T09:06:56.569Z,22.37
2019-02-20T09:09:26.171Z,21.30
2019-02-20T09:11:55.868Z,20.20
2019-02-20T09:14:25.480Z,19.37
2019-02-20T09:16:55.067Z,20.80
2019-02-20T09:19:24.786Z,21.60
2019-02-20T09:21:54.370Z,20.90
2019-02-20T09:24:24.012Z,21.70
2019-02-20T09:26:53.641Z,22.30
2019-02-20T09:29:23.330Z,23.33
2019-02-20T09:31:53.015Z,21.50
2019-02-20T09:34:22.646Z,24.27
2019-02-20T09:36:52.217Z,21.30
2019-02-20T09:39:36.501Z,21.23
2019-02-20T09:42:08.259Z,21.63
2019-02-20T09:44:46.429Z,21.87
2019-02-20T09:47:16.159Z,21.47
2019-02-20T09:49:45.808Z,22.90
2019-02-20T09:52:15.401Z,21.90
2019-02-20T09:54:44.978Z,22.70
2019-02-20T09:57:14.637Z,22.83
2019-02-20T09:59:44.319Z,19.47
2019-02-20T10:02:13.943Z,22.13
2019-02-20T10:04:43.501Z,22.67
2019-02-20T10:07:13.220Z,22.90
2019-02-20T10:09:42.774Z,19.50
2019-02-20T10:12:12.327Z,20.90
2019-02-20T10:14:42.014Z,20.93
2019-02-20T10:17:11.579Z,18.87
2019-02-20T10:19:41.131Z,19.47
2019-02-20T10:22:10.808Z,21.43
2019-02-20T10:24:40.468Z,21.53
2019-02-20T10:27:10.232Z,20.70
2019-02-20T10:29:39.895Z,19.17
2019-02-20T10:32:09.561Z,18.60
2019-02-20T10:34:39.150Z,17.60
2019-02-20T10:37:08.887Z,17.70
2019-02-20T10:39:38.608Z,18.70
2019-02-20T10:42:08.267Z,18.40
2019-02-20T10:44:37.888Z,15.37
2019-02-20T10:47:07.512Z,16.40
2019-02-20T10:49:37.081Z,20.43
2019-02-20T10:52:06.628Z,16.63
2019-02-20T10:54:36.194Z,15.17
2019-02-20T10:57:05.776Z,17.30
2019-02-20T10:59:35.515Z,18.33
2019-02-20T11:02:05.032Z,19.17
2019-02-20T11:04:34.716Z,18.67
2019-02-20T11:07:04.410Z,19.17
2019-02-20T11:09:33.965Z,17.50
2019-02-20T11:12:03.534Z,18.60
2019-02-20T11:14:33.154Z,17.13
2019-02-20T11:17:02.955Z,17.00
2019-02-20T11:19:32.490Z,16.37
2019-02-20T11:22:02.156Z,17.53
2019-02-20T11:24:31.726Z,17.80
2019-02-20T11:27:01.334Z,17.43
2019-02-20T11:29:31.017Z,18.53
2019-02-20T11:32:00.731Z,17.30
2019-02-20T11:34:30.402Z,18.70
2019-02-20T11:37:00.020Z,19.50
2019-02-20T11:39:37.266Z,21.20
2019-02-20T11:42:01.791Z,21.30
2019-02-20T11:44:31.500Z,21.90
2019-02-20T11:47:01.145Z,21.33
2019-02-20T11:49:30.810Z,24.30
2019-02-20T11:52:00.434Z,23.60
2019-02-20T11:54:30.124Z,21.57
2019-02-20T11:56:59.696Z,21.53
2019-02-20T11:59:29.359Z,20.33
2019-02-20T12:01:58.904Z,18.73
2019-02-20T12:04:28.436Z,19.53
2019-02-20T12:06:57.989Z,18.83
2019-02-20T12:09:27.714Z,18.37
2019-02-20T12:11:57.372Z,19.17
2019-02-20T12:14:27.004Z,19.27
2019-02-20T12:16:56.701Z,20.13
2019-02-20T12:19:26.350Z,19.90
2019-02-20T12:21:56.024Z,19.90
2019-02-20T12:24:25.763Z,23.23
2019-02-20T12:26:55.394Z,23.97
2019-02-20T12:29:24.952Z,26.17
2019-02-20T12:31:54.662Z,22.87
2019-02-20T12:34:24.403Z,21.67
2019-02-20T12:36:54.174Z,21.70
2019-02-20T12:39:23.803Z,20.67
2019-02-20T12:41:53.469Z,20.67
2019-02-20T12:44:23.023Z,18.73
2019-02-20T12:46:52.751Z,20.63
2019-02-20T12:49:23.373Z,18.50
2019-02-20T12:51:53.052Z,21.87
2019-02-20T12:54:22.685Z,17.43
2019-02-20T12:56:52.368Z,17.37
2019-02-20T12:59:21.990Z,22.53
2019-02-20T13:01:52.717Z,18.50
2019-02-20T13:04:22.305Z,17.60
2019-02-20T13:06:59.255Z,14.50
2019-02-20T13:09:24.360Z,14.60
2019-02-20T13:11:54.073Z,18.87
2019-02-20T13:14:23.649Z,14.60
2019-02-20T13:16:53.219Z,16.70
2019-02-20T13:19:22.865Z,14.80
2019-02-20T13:21:52.411Z,15.00
2019-02-20T13:24:22.054Z,14.60
2019-02-20T13:26:53.064Z,17.10
2019-02-20T13:29:22.938Z,16.07
2019-02-20T13:31:52.682Z,15.07
2019-02-20T13:34:22.317Z,13.70
2019-02-20T13:36:51.980Z,13.40
2019-02-20T13:39:21.534Z,11.63
2019-02-20T13:41:51.080Z,12.40
2019-02-20T13:44:20.713Z,13.83
2019-02-20T13:46:50.319Z,13.47
2019-02-20T13:49:19.861Z,12.33
2019-02-20T13:51:49.507Z,21.23
2019-02-20T13:54:19.061Z,16.83
2019-02-20T13:56:48.601Z,12.90
2019-02-20T13:59:18.299Z,11.60
2019-02-20T14:01:48.051Z,15.73
2019-02-20T14:04:18.019Z,12.87
2019-02-20T14:06:47.626Z,14.27
2019-02-20T14:09:17.181Z,12.40
2019-02-20T14:11:46.834Z,14.50
2019-02-20T14:14:16.745Z,14.57
2019-02-20T14:16:46.469Z,15.83
2019-02-20T14:19:16.411Z,13.97
2019-02-20T14:21:45.963Z,17.30
2019-02-20T14:24:15.512Z,15.17
2019-02-20T14:26:45.074Z,15.27
2019-02-20T14:29:14.707Z,15.37
2019-02-20T14:31:44.325Z,13.33
2019-02-20T14:34:14.144Z,14.73
2019-02-20T14:36:43.928Z,88.17
2019-02-20T14:39:13.589Z,16.97
2019-02-20T14:41:43.211Z,17.40
2019-02-20T14:44:12.804Z,16.17
2019-02-20T14:46:42.401Z,17.07
2019-02-20T14:49:12.297Z,17.40
2019-02-20T14:51:41.878Z,17.87
2019-02-20T14:54:11.525Z,16.53
2019-02-20T14:56:41.136Z,16.10
2019-02-20T14:59:10.860Z,15.47
2019-02-20T15:01:40.438Z,16.83
2019-02-20T15:04:10.387Z,15.50
2019-02-20T15:06:40.059Z,13.80
2019-02-20T15:09:09.897Z,16.50
2019-02-20T15:11:39.452Z,15.30
2019-02-20T15:14:09.115Z,18.20
2019-02-20T15:16:38.735Z,18.27
2019-02-20T15:19:08.923Z,22.80
2019-02-20T15:21:38.475Z,20.67
2019-02-20T15:24:08.031Z,19.47
2019-02-20T15:26:37.674Z,19.50
2019-02-20T15:29:07.250Z,18.37
2019-02-20T15:31:36.867Z,17.67
2019-02-20T15:34:06.681Z,17.43
2019-02-20T15:36:36.288Z,18.50
2019-02-20T15:39:06.029Z,19.57
2019-02-20T15:41:35.572Z,18.27
2019-02-20T15:44:05.130Z,17.70
2019-02-20T15:46:34.909Z,19.33
2019-02-20T15:49:04.783Z,17.70
2019-02-20T15:51:34.342Z,16.60
2019-02-20T15:54:04.147Z,18.13
2019-02-20T15:56:33.823Z,18.20
2019-02-20T15:59:03.455Z,18.03
2019-02-20T16:01:33.024Z,25.83
2019-02-20T16:04:02.870Z,20.73
2019-02-20T16:06:32.515Z,17.70
2019-02-20T16:09:02.105Z,18.60
2019-02-20T16:11:31.705Z,18.73
2019-02-20T16:14:01.245Z,20.00
2019-02-20T16:16:30.829Z,22.50
2019-02-20T16:19:00.367Z,17.00
2019-02-20T16:21:29.972Z,18.30
2019-02-20T16:23:59.644Z,17.10
2019-02-20T16:26:29.214Z,18.00
2019-02-20T16:28:58.895Z,18.03
2019-02-20T16:31:28.468Z,16.20
2019-02-20T16:33:58.036Z,15.37
2019-02-20T16:36:27.677Z,19.80
2019-02-20T16:38:57.211Z,15.80
2019-02-20T16:41:26.771Z,15.60
2019-02-20T16:43:56.337Z,17.00
2019-02-20T16:46:25.998Z,17.37
2019-02-20T16:48:55.623Z,41.33
2019-02-20T16:51:25.427Z,25.50
2019-02-20T16:53:54.971Z,20.13
2019-02-20T16:56:24.736Z,16.90
2019-02-20T16:58:54.299Z,14.90
2019-02-20T17:01:23.951Z,15.30
2019-02-20T17:03:53.581Z,16.33
2019-02-20T17:06:23.938Z,16.73
2019-02-20T17:08:56.765Z,15.93
2019-02-20T17:11:27.536Z,17.20
2019-02-20T17:13:57.229Z,16.20
2019-02-20T17:16:29.593Z,14.50
2019-02-20T17:18:59.870Z,18.00
2019-02-20T17:21:29.488Z,16.20
2019-02-20T17:23:59.042Z,13.90
2019-02-20T17:26:28.744Z,13.73
2019-02-20T17:28:58.386Z,14.17
2019-02-20T17:31:28.127Z,13.30
2019-02-20T17:33:58.175Z,15.97
2019-02-20T17:36:27.727Z,13.77
2019-02-20T17:38:57.483Z,13.63
2019-02-20T17:41:27.036Z,15.67
2019-02-20T17:43:56.710Z,15.27
2019-02-20T17:46:26.338Z,13.33
2019-02-20T17:48:56.417Z,16.23
2019-02-20T17:51:25.976Z,15.07
2019-02-20T17:53:55.575Z,13.60
2019-02-20T17:56:25.171Z,11.70
2019-02-20T17:58:54.788Z,11.23
2019-02-20T18:01:24.437Z,16.93
2019-02-20T18:03:54.103Z,13.37
2019-02-20T18:06:23.674Z,17.73
2019-02-20T18:08:53.296Z,13.70
2019-02-20T18:11:22.915Z,11.80
2019-02-20T18:13:52.726Z,16.17
2019-02-20T18:16:22.369Z,11.90
2019-02-20T18:18:51.980Z,14.03
2019-02-20T18:21:21.636Z,12.17
2019-02-20T18:23:51.197Z,11.50
2019-02-20T18:26:20.766Z,14.33
2019-02-20T18:28:50.318Z,14.47
2019-02-20T18:31:19.904Z,10.80
2019-02-20T18:33:49.478Z,11.57
2019-02-20T18:36:19.222Z,13.30
2019-02-20T18:38:48.940Z,13.13
2019-02-20T18:41:18.619Z,12.13
2019-02-20T18:43:48.266Z,9.70
2019-02-20T18:46:17.876Z,10.83
2019-02-20T18:48:47.660Z,10.37
2019-02-20T18:51:17.231Z,10.97
2019-02-20T18:53:46.771Z,9.70
2019-02-20T18:56:16.458Z,11.80
2019-02-20T18:58:46.134Z,11.27
2019-02-20T19:01:15.820Z,11.27
2019-02-20T19:03:45.383Z,11.23
2019-02-20T19:06:14.991Z,11.90
2019-02-20T19:08:52.927Z,11.93
2019-02-20T19:11:35.505Z,11.37
2019-02-20T19:14:26.097Z,11.97
2019-02-20T19:17:36.449Z,10.47
2019-02-20T19:20:34.279Z,11.33
2019-02-20T19:23:49.638Z,12.77
2019-02-20T19:26:59.607Z,12.80
2019-02-20T19:30:04.645Z,11.83
2019-02-20T19:33:23.731Z,14.80
2019-02-20T19:36:19.783Z,15.90
2019-02-20T19:39:13.922Z,12.10
2019-02-20T19:42:12.722Z,14.00
2019-02-20T19:45:06.929Z,13.90
2019-02-20T19:47:58.173Z,13.43
2019-02-20T19:51:02.365Z,14.80
2019-02-20T19:54:03.998Z,13.50
2019-02-20T19:57:08.812Z,15.07
2019-02-20T20:00:15.704Z,16.80
2019-02-20T20:03:14.079Z,13.60
2019-02-20T20:06:24.786Z,11.43
2019-02-20T20:09:15.004Z,15.80
2019-02-20T20:12:22.056Z,20.80
2019-02-20T20:15:20.787Z,17.13
2019-02-20T20:18:19.134Z,20.37
2019-02-20T20:21:35.252Z,13.97
2019-02-20T20:24:47.288Z,14.17
2019-02-20T20:27:34.662Z,15.37
2019-02-20T20:30:42.768Z,17.50
2019-02-20T20:33:42.361Z,22.10
2019-02-20T20:36:44.326Z,13.33
2019-02-20T20:39:47.784Z,18.07
2019-02-20T20:42:57.634Z,12.70
2019-02-20T20:45:45.732Z,16.03
2019-02-20T20:48:39.499Z,14.17
2019-02-20T20:51:45.822Z,13.50
2019-02-20T20:54:51.390Z,15.40
2019-02-20T20:58:16.964Z,23.27
2019-02-20T21:01:28.767Z,13.90
2019-02-20T21:04:54.027Z,16.80
2019-02-20T21:07:53.554Z,15.03
2019-02-20T21:11:10.084Z,13.37
2019-02-20T21:14:11.472Z,13.53
2019-02-20T21:17:11.727Z,13.03
2019-02-20T21:20:03.109Z,15.37
2019-02-20T21:23:19.899Z,15.53
2019-02-20T21:26:26.998Z,17.60
2019-02-20T21:29:11.274Z,15.20
2019-02-20T21:32:06.665Z,14.20
2019-02-20T21:34:58.770Z,14.10
2019-02-20T21:38:06.395Z,15.60
2019-02-20T21:40:51.988Z,16.53
2019-02-20T21:44:09.273Z,15.30
2019-02-20T21:47:08.761Z,21.80
2019-02-20T21:50:11.679Z,14.10
2019-02-20T21:53:23.919Z,13.57
2019-02-20T21:56:29.670Z,34.63
2019-02-20T21:59:39.452Z,20.77
2019-02-20T22:02:49.697Z,13.90
2019-02-20T22:05:40.690Z,15.07
2019-02-20T22:08:53.492Z,14.63
2019-02-20T22:11:54.362Z,14.37
2019-02-20T22:15:08.877Z,25.13
2019-02-20T22:18:04.074Z,16.07
2019-02-20T22:20:51.997Z,17.27
2019-02-20T22:23:42.814Z,16.10
2019-02-20T22:26:46.174Z,14.23
2019-02-20T22:29:50.386Z,16.40
2019-02-20T22:33:21.791Z,18.43
2019-02-20T22:36:15.784Z,15.70
2019-02-20T22:39:19.478Z,16.90
2019-02-20T22:42:27.128Z,20.43
2019-02-20T22:45:48.947Z,15.67
2019-02-20T22:49:02.330Z,15.73
2019-02-20T22:51:55.257Z,15.87
2019-02-20T22:55:30.269Z,16.37
2019-02-20T22:58:22.160Z,21.53
2019-02-20T23:01:20.796Z,18.23
2019-02-20T23:04:42.368Z,15.10
2019-02-20T23:07:43.264Z,18.30
2019-02-20T23:10:51.101Z,16.20
2019-02-20T23:13:55.509Z,15.83
2019-02-20T23:16:25.199Z,14.87
2019-02-20T23:18:54.855Z,13.63
2019-02-20T23:21:24.394Z,13.93
2019-02-20T23:23:54.035Z,15.10
2019-02-20T23:26:23.571Z,14.30
2019-02-20T23:28:53.210Z,14.60
2019-02-20T23:31:22.791Z,15.03
2019-02-20T23:33:52.325Z,15.40
2019-02-20T23:36:21.856Z,13.47
2019-02-20T23:38:51.424Z,13.80
2019-02-20T23:41:20.937Z,13.43
2019-02-20T23:43:50.578Z,12.83
2019-02-20T23:46:20.124Z,14.00
2019-02-20T23:48:49.671Z,15.17
2019-02-20T23:51:19.212Z,15.77
2019-02-20T23:53:48.916Z,16.33
2019-02-20T23:56:18.459Z,15.13
2019-02-20T23:58:48.028Z,16.93
